createdAt,value
2018-02-12T00:03:18.000Z,33.129
2018-02-12T00:13:18.000Z,33.157
2018-02-12T00:23:18.000Z,33.12
2018-02-12T00:33:18.000Z,33.105
2018-02-12T00:43:18.000Z,33.133
2018-02-12T00:53:18.000Z,33.195
2018-02-12T01:03:18.000Z,33.18
2018-02-12T01:13:18.000Z,33.144
2018-02-12T01:23:18.000Z,33.108
2018-02-12T01:33:18.000Z,33.072
2018-02-12T01:43:18.000Z,33.134
2018-02-12T01:53:18.000Z,32.98
2018-02-12T02:03:18.000Z,32.997
2018-02-12T02:13:18.000Z,32.897
2018-02-12T02:23:18.000Z,33.036
2018-02-12T02:33:18.000Z,32.947
2018-02-12T02:43:18.000Z,32.976
2018-02-12T02:53:18.000Z,32.917
2018-02-12T03:03:18.000Z,32.863
2018-02-12T03:13:18.000Z,32.871
2018-02-12T03:23:18.000Z,32.803
2018-02-12T03:33:18.000Z,32.691
2018-02-12T03:43:18.000Z,32.722
2018-02-12T03:53:18.000Z,32.719
2018-02-12T04:03:18.000Z,32.545
2018-02-12T04:13:18.000Z,32.542
2018-02-12T04:23:18.000Z,32.648
2018-02-12T04:33:18.000Z,32.636
2018-02-12T04:43:18.000Z,32.525
2018-02-12T04:53:18.000Z,32.458
2018-02-12T05:03:18.000Z,32.208
2018-02-12T05:13:18.000Z,32.066
2018-02-12T05:23:18.000Z,31.966
2018-02-12T05:33:18.000Z,31.933
2018-02-12T05:43:18.000Z,31.749
2018-02-12T05:53:19.000Z,31.64
2018-02-12T06:03:19.000Z,31.551
2018-02-12T06:13:19.000Z,31.411
2018-02-12T06:23:19.000Z,31.442
2018-02-12T06:33:19.000Z,31.083
2018-02-12T06:43:19.000Z,31.058
2018-02-12T06:53:19.000Z,30.541
2018-02-12T07:03:19.000Z,30.353
2018-02-12T07:13:19.000Z,30.253
2018-02-12T07:23:19.000Z,31.133
2018-02-12T07:33:19.000Z,31.385
2018-02-12T07:43:19.000Z,30.238
2018-02-12T07:53:19.000Z,29.825
2018-02-12T08:03:19.000Z,29.573
2018-02-12T08:13:19.000Z,29.443
2018-02-12T08:23:19.000Z,30.008
2018-02-12T08:33:19.000Z,29.854
2018-02-12T08:43:20.000Z,29.363
2018-02-12T08:53:19.000Z,29.82
2018-02-12T09:03:19.000Z,29.672
2018-02-12T09:13:19.000Z,29.794
2018-02-12T09:23:19.000Z,30.28
2018-02-12T09:33:19.000Z,31.175
2018-02-12T09:43:19.000Z,31.279
2018-02-12T09:53:19.000Z,31.944
2018-02-12T10:03:19.000Z,32.876
2018-02-12T10:13:19.000Z,33.651
2018-02-12T10:23:19.000Z,32.346
2018-02-12T10:33:19.000Z,32.438
2018-02-12T10:43:19.000Z,32.758
2018-02-12T10:53:19.000Z,27.323
2018-02-12T11:03:19.000Z,26.193
2018-02-12T11:13:19.000Z,24.75
2018-02-12T11:23:19.000Z,24.754
2018-02-12T11:33:19.000Z,24.671
2018-02-12T11:43:19.000Z,25.08
2018-02-12T11:53:19.000Z,25.164
2018-02-12T12:03:19.000Z,28.75
2018-02-12T12:13:19.000Z,26.989
2018-02-12T12:23:19.000Z,27.448
2018-02-12T12:33:19.000Z,24.838
2018-02-12T12:43:19.000Z,25.59
2018-02-12T12:53:19.000Z,24.322
2018-02-12T13:03:19.000Z,25.653
2018-02-12T13:13:19.000Z,26.441
2018-02-12T13:23:19.000Z,26.854
2018-02-12T13:33:19.000Z,26.98
2018-02-12T13:43:19.000Z,26.722
2018-02-12T13:53:21.000Z,26.638
2018-02-12T14:03:19.000Z,26.739
2018-02-12T14:13:20.000Z,26.631
2018-02-12T14:23:20.000Z,26.83
2018-02-12T14:33:20.000Z,26.885
2018-02-12T14:43:20.000Z,26.961
2018-02-12T14:53:20.000Z,26.985
2018-02-12T15:03:20.000Z,27.05
2018-02-12T15:13:20.000Z,26.953
2018-02-12T15:23:20.000Z,26.986
2018-02-12T15:33:20.000Z,27.062
2018-02-12T15:43:20.000Z,27.041
2018-02-12T15:53:20.000Z,27.041
2018-02-12T16:03:20.000Z,27.205
2018-02-12T16:13:20.000Z,27.164
2018-02-12T16:23:20.000Z,27.185
2018-02-12T16:33:20.000Z,27.403
2018-02-12T16:43:20.000Z,27.215
2018-02-12T16:53:20.000Z,27.412
2018-02-12T17:03:20.000Z,27.727
2018-02-12T17:13:20.000Z,27.098
2018-02-12T17:23:20.000Z,26.886
2018-02-12T17:33:20.000Z,26.92
2018-02-12T17:43:20.000Z,27.043
2018-02-12T17:53:20.000Z,27.42
2018-02-12T18:03:20.000Z,28.118
2018-02-12T18:13:20.000Z,28.567
2018-02-12T18:23:20.000Z,28.898
2018-02-12T18:33:20.000Z,27.625
2018-02-12T18:43:20.000Z,27.005
2018-02-12T18:53:20.000Z,27.672
2018-02-12T19:03:20.000Z,26.881
2018-02-12T19:13:20.000Z,26.869
2018-02-12T19:23:20.000Z,27.052
2018-02-12T19:33:20.000Z,26.757
2018-02-12T19:43:20.000Z,26.639
2018-02-12T19:53:20.000Z,26.748
2018-02-12T20:03:20.000Z,26.73
2018-02-12T20:13:20.000Z,27.317
2018-02-12T20:23:20.000Z,27.263
2018-02-12T20:33:20.000Z,26.818
2018-02-12T20:43:20.000Z,26.784
2018-02-12T20:53:20.000Z,26.902
2018-02-12T21:03:20.000Z,26.826
2018-02-12T21:13:20.000Z,26.846
2018-02-12T21:23:20.000Z,26.889
2018-02-12T21:33:22.000Z,26.912
2018-02-12T21:43:20.000Z,27.075
2018-02-12T21:53:20.000Z,27.042
2018-02-12T22:03:20.000Z,27.225
2018-02-12T22:13:21.000Z,27.299
2018-02-12T22:23:21.000Z,27.124
2018-02-12T22:33:21.000Z,27.1
2018-02-12T22:43:21.000Z,27.206
2018-02-12T22:53:21.000Z,27.291
2018-02-12T23:03:21.000Z,27.365
2018-02-12T23:13:21.000Z,27.395
2018-02-12T23:23:21.000Z,27.544
2018-02-12T23:33:21.000Z,27.598
2018-02-12T23:43:21.000Z,27.89
2018-02-12T23:53:21.000Z,27.797
